Time;durP1;ratioP1;P1;durP2;ratioP2;P2;SDS_P1;SDS_P2;PMS_P1;PMS_P2;Temp;Humidity;BMP_temperature;BMP_pressure;BME280_temperature;BME280_humidity;BME280_pressure;Samples;Min_cycle;Max_cycle;Signal;HPM_P1;HPM_P2
2022/12/18 00:02:15;;;;;;;25.60;11.73;;;-3.60;99.90;;;;;;5033752;28;20576;-44
2022/12/18 00:04:40;;;;;;;22.27;10.63;;;-3.50;99.90;;;;;;5033461;28;20173;-44
2022/12/18 00:07:06;;;;;;;22.27;10.60;;;-3.60;99.90;;;;;;5033498;28;20175;-44
2022/12/18 00:09:32;;;;;;;19.57;9.43;;;-3.60;99.90;;;;;;5033682;28;20176;-43
2022/12/18 00:11:57;;;;;;;21.07;10.47;;;-3.70;99.90;;;;;;5033581;28;20216;-43
2022/12/18 00:14:23;;;;;;;19.80;9.80;;;-3.70;99.90;;;;;;5033323;28;20517;-43
2022/12/18 00:16:48;;;;;;;31.93;12.10;;;-3.70;99.90;;;;;;5033218;28;20252;-43
2022/12/18 00:19:14;;;;;;;23.03;10.50;;;-3.70;99.90;;;;;;5032830;28;20172;-45
2022/12/18 00:21:41;;;;;;;22.10;12.20;;;-3.70;99.90;;;;;;5033163;28;20227;-44
2022/12/18 00:24:06;;;;;;;21.87;11.67;;;-3.80;99.90;;;;;;5033243;28;20299;-43
2022/12/18 00:26:34;;;;;;;24.33;12.53;;;-3.70;99.90;;;;;;5033057;28;20271;-43
2022/12/18 00:29:13;;;;;;;21.87;10.90;;;-3.70;99.90;;;;;;5033120;28;20251;-43
2022/12/18 00:31:40;;;;;;;21.30;11.53;;;-3.70;99.90;;;;;;5033200;28;20347;-43
2022/12/18 00:34:06;;;;;;;25.10;13.30;;;-3.70;99.90;;;;;;5032973;28;20211;-43
2022/12/18 00:36:33;;;;;;;24.57;11.80;;;-3.70;99.90;;;;;;5032928;28;20612;-43
2022/12/18 00:39:00;;;;;;;20.20;11.03;;;-3.70;99.90;;;;;;5033279;28;20628;-43
2022/12/18 00:44:15;;;;;;;17.37;8.90;;;-3.60;99.90;;;;;;5033126;28;20225;-45
2022/12/18 00:46:43;;;;;;;17.20;9.50;;;-3.60;99.90;;;;;;5032797;28;20167;-44
2022/12/18 00:49:08;;;;;;;17.20;10.07;;;-3.60;99.90;;;;;;5031647;28;20175;-45
2022/12/18 00:51:34;;;;;;;20.63;9.67;;;-3.60;99.90;;;;;;5032587;28;20199;-44
2022/12/18 00:54:00;;;;;;;18.37;9.40;;;-3.60;99.90;;;;;;5032664;28;20224;-43
2022/12/18 00:56:26;;;;;;;21.37;10.67;;;-3.60;99.90;;;;;;5033010;28;20177;-50
2022/12/18 00:58:51;;;;;;;20.17;9.07;;;-3.70;99.90;;;;;;5032622;28;20532;-43
2022/12/18 01:01:17;;;;;;;21.77;10.20;;;-3.70;99.90;;;;;;4994971;28;1087504;-44
2022/12/18 01:03:45;;;;;;;23.07;11.00;;;-3.80;99.90;;;;;;5033503;28;20663;-43
2022/12/18 01:06:11;;;;;;;17.60;9.83;;;-3.90;99.90;;;;;;5033417;28;20637;-44
2022/12/18 01:08:38;;;;;;;21.40;10.77;;;-3.90;99.90;;;;;;5033075;28;20166;-43
2022/12/18 01:11:09;;;;;;;22.03;9.43;;;-3.90;99.90;;;;;;5033580;28;20212;-43
2022/12/18 01:13:35;;;;;;;17.20;10.10;;;-3.90;99.90;;;;;;5033362;28;20213;-43
2022/12/18 01:16:00;;;;;;;18.33;10.60;;;-3.90;99.90;;;;;;5033283;28;20258;-47
2022/12/18 01:18:26;;;;;;;18.17;9.47;;;-3.80;99.90;;;;;;5033622;28;20164;-46
2022/12/18 01:20:51;;;;;;;18.83;10.90;;;-3.90;99.90;;;;;;5033206;28;20172;-46
2022/12/18 01:23:17;;;;;;;18.50;9.57;;;-3.90;99.90;;;;;;5033161;28;20170;-49
2022/12/18 01:25:43;;;;;;;21.80;10.27;;;-3.80;99.90;;;;;;5033118;28;20193;-49
2022/12/18 01:28:08;;;;;;;16.07;8.33;;;-3.80;99.90;;;;;;5033021;28;20189;-46
2022/12/18 01:30:34;;;;;;;19.03;9.90;;;-3.80;99.90;;;;;;5032288;28;20285;-48
2022/12/18 01:32:59;;;;;;;17.43;9.67;;;-3.90;99.90;;;;;;5032807;28;20243;-46
2022/12/18 01:35:25;;;;;;;19.90;10.60;;;-3.90;99.90;;;;;;5033259;28;20189;-50
2022/12/18 01:37:54;;;;;;;19.93;10.27;;;-3.80;99.90;;;;;;5032924;28;20176;-48
2022/12/18 01:40:20;;;;;;;18.80;9.80;;;-3.80;99.90;;;;;;5050223;28;20173;-46
2022/12/18 01:42:51;;;;;;;21.93;10.33;;;-3.80;99.90;;;;;;5052683;28;20521;-45
2022/12/18 01:45:29;;;;;;;17.03;9.33;;;-3.80;99.90;;;;;;5052634;28;20174;-47
2022/12/18 01:48:01;;;;;;;18.00;8.87;;;-3.90;99.90;;;;;;5053087;28;20273;-46
2022/12/18 01:50:33;;;;;;;20.73;10.33;;;-3.80;99.90;;;;;;5052900;28;20206;-47
2022/12/18 01:53:02;;;;;;;19.80;10.70;;;-3.80;99.90;;;;;;5052507;28;20179;-44
2022/12/18 01:55:36;;;;;;;21.53;10.37;;;-3.80;99.90;;;;;;5052837;28;20714;-49
2022/12/18 01:58:02;;;;;;;25.37;11.30;;;-3.80;99.90;;;;;;5052468;28;20171;-44
2022/12/18 02:00:28;;;;;;;20.47;10.10;;;-3.70;99.90;;;;;;5052773;28;20206;-45
2022/12/18 02:02:54;;;;;;;18.97;9.43;;;-3.70;99.90;;;;;;5052517;28;20218;-49
2022/12/18 02:05:38;;;;;;;20.37;10.27;;;-3.70;99.90;;;;;;5052559;28;20208;-49
2022/12/18 02:08:10;;;;;;;21.90;10.20;;;-3.70;99.90;;;;;;5052239;28;20252;-45
2022/12/18 02:11:00;;;;;;;21.50;10.60;;;-3.80;99.90;;;;;;5052118;28;20213;-45
2022/12/18 02:13:51;;;;;;;22.80;10.87;;;-3.80;99.90;;;;;;5052449;28;20190;-44
2022/12/18 02:16:54;;;;;;;20.87;10.47;;;-3.80;99.90;;;;;;5052036;28;20656;-45
2022/12/18 02:19:32;;;;;;;24.80;11.27;;;-3.70;99.90;;;;;;5052244;28;20172;-47
2022/12/18 02:22:07;;;;;;;18.00;10.47;;;-3.70;99.90;;;;;;5052395;28;20169;-45
2022/12/18 02:25:08;;;;;;;19.30;10.47;;;-3.70;99.90;;;;;;5051969;28;20193;-48
2022/12/18 02:27:36;;;;;;;26.47;10.93;;;-3.80;99.90;;;;;;5040305;28;20642;-46
2022/12/18 02:30:04;;;;;;;22.73;9.90;;;-3.80;99.90;;;;;;5051808;28;20247;-49
2022/12/18 02:32:50;;;;;;;24.20;10.77;;;-3.80;99.90;;;;;;5051818;28;20314;-46
2022/12/18 02:35:22;;;;;;;22.20;10.53;;;-3.80;99.90;;;;;;5052081;28;20505;-47
2022/12/18 02:37:48;;;;;;;20.97;10.77;;;-3.80;99.90;;;;;;5051757;28;20178;-46
2022/12/18 02:40:15;;;;;;;23.83;11.03;;;-3.80;99.90;;;;;;5051723;28;20163;-47
2022/12/18 02:42:41;;;;;;;25.53;10.40;;;-3.90;99.90;;;;;;5051707;28;20173;-45
2022/12/18 02:45:07;;;;;;;23.60;9.97;;;-3.90;99.90;;;;;;5051711;28;20188;-48
2022/12/18 02:47:41;;;;;;;18.93;10.90;;;-3.90;99.90;;;;;;5051871;28;20178;-45
2022/12/18 02:50:22;;;;;;;19.93;10.60;;;-3.90;99.90;;;;;;5051620;28;20167;-46
2022/12/18 02:53:11;;;;;;;19.80;10.97;;;-3.90;99.90;;;;;;5051561;28;20175;-45
2022/12/18 02:56:05;;;;;;;18.60;9.80;;;-3.90;99.90;;;;;;5051614;28;20175;-47
2022/12/18 02:58:51;;;;;;;21.50;10.10;;;-4.00;99.90;;;;;;5051529;28;20167;-45
2022/12/18 03:01:30;;;;;;;24.03;10.97;;;-4.00;99.90;;;;;;5051498;28;20229;-44
2022/12/18 03:04:02;;;;;;;17.87;9.97;;;-4.00;99.90;;;;;;5051888;28;20160;-46
2022/12/18 03:06:35;;;;;;;19.43;10.27;;;-4.00;99.90;;;;;;5051883;28;20171;-48
2022/12/18 03:09:07;;;;;;;22.43;10.23;;;-4.00;99.90;;;;;;5051431;28;20222;-45
2022/12/18 03:14:23;;;;;;;21.00;10.80;;;-4.00;99.90;;;;;;5051716;28;20170;-49
2022/12/18 03:16:58;;;;;;;18.30;9.57;;;-4.10;99.90;;;;;;5051333;28;20191;-45
2022/12/18 03:19:28;;;;;;;20.50;10.97;;;-4.10;99.90;;;;;;5051747;28;20171;-46
2022/12/18 03:21:56;;;;;;;22.23;10.23;;;-4.00;99.90;;;;;;5051626;28;20622;-47
2022/12/18 03:24:24;;;;;;;21.57;10.17;;;-4.10;99.90;;;;;;5051321;28;20165;-46
2022/12/18 03:26:53;;;;;;;21.43;10.30;;;-4.10;99.90;;;;;;5051309;28;20181;-46
2022/12/18 03:29:24;;;;;;;21.37;10.23;;;-4.10;99.90;;;;;;5051252;28;20173;-48
2022/12/18 03:32:04;;;;;;;24.67;11.73;;;-4.10;99.90;;;;;;5051154;28;20210;-48
2022/12/18 03:34:33;;;;;;;19.47;10.80;;;-4.10;99.90;;;;;;5051297;28;20201;-48
2022/12/18 03:36:59;;;;;;;21.57;10.47;;;-4.10;99.90;;;;;;5051198;28;20187;-44
2022/12/18 03:39:25;;;;;;;22.57;11.03;;;-4.10;99.90;;;;;;5051570;28;20209;-49
2022/12/18 03:41:53;;;;;;;21.17;10.33;;;-4.10;99.90;;;;;;5051122;28;20258;-48
2022/12/18 03:44:35;;;;;;;20.10;10.40;;;-4.20;99.90;;;;;;5051130;28;20629;-47
2022/12/18 03:47:13;;;;;;;21.23;11.20;;;-4.20;99.90;;;;;;5051134;28;20168;-48
2022/12/18 03:49:49;;;;;;;20.83;9.73;;;-4.20;99.90;;;;;;5051100;28;20237;-47
2022/12/18 03:52:44;;;;;;;20.50;10.13;;;-4.20;99.90;;;;;;5051020;28;20207;-50
2022/12/18 03:55:10;;;;;;;25.40;12.47;;;-4.20;99.90;;;;;;5053313;28;20163;-49
2022/12/18 03:57:37;;;;;;;22.67;11.80;;;-4.20;99.90;;;;;;5054752;28;20177;-43
2022/12/18 04:00:10;;;;;;;23.30;11.47;;;-4.10;99.90;;;;;;5054679;28;20175;-50
2022/12/18 04:02:40;;;;;;;28.67;11.27;;;-4.10;99.90;;;;;;5053209;28;20631;-43
2022/12/18 04:05:08;;;;;;;20.23;10.77;;;-4.10;99.90;;;;;;5054639;28;20313;-43
2022/12/18 04:07:34;;;;;;;19.50;11.63;;;-4.00;99.90;;;;;;5054516;28;20179;-43
2022/12/18 04:10:02;;;;;;;22.00;12.00;;;-4.10;99.90;;;;;;5054552;28;20198;-43
2022/12/18 04:12:29;;;;;;;21.07;11.57;;;-4.20;99.90;;;;;;5055098;28;20535;-43
2022/12/18 04:14:55;;;;;;;21.80;10.50;;;-4.10;99.90;;;;;;5053501;28;20164;-43
2022/12/18 04:17:22;;;;;;;22.77;10.90;;;-4.10;99.90;;;;;;5054348;28;20527;-43
2022/12/18 04:19:47;;;;;;;21.40;10.87;;;-4.10;99.90;;;;;;5054441;28;20175;-44
2022/12/18 04:22:13;;;;;;;21.63;10.43;;;-4.20;99.90;;;;;;5054227;28;20174;-44
2022/12/18 04:24:39;;;;;;;20.70;10.57;;;-4.20;99.90;;;;;;5054197;28;20171;-44
2022/12/18 04:27:04;;;;;;;21.37;10.57;;;-4.30;99.90;;;;;;5054134;28;20528;-43
2022/12/18 04:29:30;;;;;;;24.50;10.77;;;-4.30;99.90;;;;;;5054114;28;20203;-43
2022/12/18 04:31:56;;;;;;;20.93;10.17;;;-4.30;99.90;;;;;;5054282;28;20604;-44
2022/12/18 04:34:21;;;;;;;18.70;9.87;;;-4.30;99.90;;;;;;5054049;28;20253;-50
2022/12/18 04:36:47;;;;;;;23.63;10.57;;;-4.20;99.90;;;;;;5053916;28;20173;-43
2022/12/18 04:39:13;;;;;;;18.63;10.03;;;-4.20;99.90;;;;;;5054166;28;20583;-44
2022/12/18 04:41:39;;;;;;;19.63;10.77;;;-4.30;99.90;;;;;;5053921;28;20168;-45
2022/12/18 04:44:05;;;;;;;24.70;10.80;;;-4.20;99.90;;;;;;5053870;28;20547;-46
2022/12/18 04:46:30;;;;;;;24.00;11.00;;;-4.20;99.90;;;;;;5053824;28;20163;-47
2022/12/18 04:48:56;;;;;;;19.93;9.93;;;-4.10;99.90;;;;;;5054129;28;20530;-45
2022/12/18 04:51:21;;;;;;;20.40;10.70;;;-4.10;99.90;;;;;;5053650;28;20205;-45
2022/12/18 04:53:47;;;;;;;20.60;9.73;;;-4.20;99.90;;;;;;5053639;28;20163;-43
2022/12/18 04:56:14;;;;;;;16.37;9.07;;;-4.20;99.90;;;;;;5053559;28;20600;-43
2022/12/18 04:58:42;;;;;;;22.63;11.23;;;-4.20;99.90;;;;;;5053746;28;20173;-43
2022/12/18 05:01:08;;;;;;;17.30;9.33;;;-4.10;99.90;;;;;;5053567;28;20599;-44
2022/12/18 05:03:36;;;;;;;19.23;9.77;;;-4.10;99.90;;;;;;5053483;28;20678;-48
2022/12/18 05:06:02;;;;;;;21.33;9.47;;;-4.10;99.90;;;;;;5052578;28;20317;-46
2022/12/18 05:08:27;;;;;;;22.10;10.07;;;-4.10;99.90;;;;;;5053835;28;20585;-45
2022/12/18 05:11:07;;;;;;;25.43;11.30;;;-4.10;99.90;;;;;;5053274;28;20282;-45
2022/12/18 05:13:34;;;;;;;20.93;10.30;;;-4.10;99.90;;;;;;5053549;28;20286;-45
2022/12/18 05:16:00;;;;;;;19.60;9.63;;;-4.10;99.90;;;;;;5053236;28;20166;-46
2022/12/18 05:18:26;;;;;;;21.67;10.83;;;-4.20;99.90;;;;;;5053645;28;20166;-48
2022/12/18 05:20:52;;;;;;;19.87;10.37;;;-4.10;99.90;;;;;;5053081;28;20163;-47
2022/12/18 05:23:19;;;;;;;20.50;10.60;;;-4.20;99.90;;;;;;5053121;28;20173;-48
2022/12/18 05:25:56;;;;;;;19.53;9.83;;;-4.20;99.90;;;;;;5053131;28;20175;-44
2022/12/18 05:28:23;;;;;;;19.33;10.10;;;-4.10;99.90;;;;;;5052950;28;20693;-45
2022/12/18 05:30:50;;;;;;;21.57;11.13;;;-4.20;99.90;;;;;;5052884;28;20211;-47
2022/12/18 05:33:16;;;;;;;21.20;10.33;;;-4.10;99.90;;;;;;5052953;28;20515;-47
2022/12/18 05:35:42;;;;;;;22.27;11.07;;;-4.20;99.90;;;;;;5052905;28;20210;-47
2022/12/18 05:38:07;;;;;;;19.70;10.03;;;-4.20;99.90;;;;;;5052842;28;20200;-47
2022/12/18 05:40:33;;;;;;;20.20;9.10;;;-4.10;99.90;;;;;;5052605;28;20169;-46
2022/12/18 05:42:58;;;;;;;21.87;10.00;;;-4.30;99.90;;;;;;5053014;28;20170;-45
2022/12/18 05:45:24;;;;;;;26.57;11.20;;;-4.30;99.90;;;;;;5053114;28;20212;-47
2022/12/18 05:47:49;;;;;;;22.63;10.60;;;-4.30;99.90;;;;;;5052637;28;20208;-44
2022/12/18 05:50:15;;;;;;;23.53;11.13;;;-4.30;99.90;;;;;;5051249;28;20179;-45
2022/12/18 05:52:40;;;;;;;25.27;10.30;;;-4.20;99.90;;;;;;5052781;28;20193;-45
2022/12/18 05:55:06;;;;;;;22.17;10.63;;;-4.30;99.90;;;;;;5052509;28;20218;-46
2022/12/18 05:57:32;;;;;;;21.33;11.53;;;-4.30;99.90;;;;;;5052407;28;20175;-47
2022/12/18 05:59:57;;;;;;;22.60;11.23;;;-4.30;99.90;;;;;;5052762;28;20625;-46
2022/12/18 06:02:23;;;;;;;27.37;12.60;;;-4.30;99.90;;;;;;5051355;28;20702;-48
2022/12/18 06:04:49;;;;;;;22.00;11.07;;;-4.30;99.90;;;;;;5052380;28;20171;-44
2022/12/18 06:07:14;;;;;;;27.03;12.30;;;-4.30;99.90;;;;;;5052256;28;20168;-49
2022/12/18 06:09:40;;;;;;;22.27;11.10;;;-4.30;99.90;;;;;;5052366;28;20542;-48
2022/12/18 06:12:06;;;;;;;19.53;11.00;;;-4.30;99.90;;;;;;5052122;28;20207;-48
2022/12/18 06:14:31;;;;;;;23.63;12.10;;;-4.30;99.90;;;;;;5052279;28;20526;-50
2022/12/18 06:16:57;;;;;;;23.90;12.37;;;-4.30;99.90;;;;;;5052104;28;20179;-47
2022/12/18 06:19:22;;;;;;;24.60;11.47;;;-4.30;99.90;;;;;;5052108;28;20189;-50
2022/12/18 06:21:49;;;;;;;24.93;12.83;;;-4.30;99.90;;;;;;5052341;28;20223;-49
2022/12/18 06:24:14;;;;;;;21.83;12.20;;;-4.30;99.90;;;;;;5052010;28;20166;-49
2022/12/18 06:26:40;;;;;;;22.90;12.17;;;-4.30;99.90;;;;;;5051952;28;20179;-49
2022/12/18 06:29:06;;;;;;;25.37;12.50;;;-4.20;99.90;;;;;;5051945;28;20179;-49
2022/12/18 06:31:31;;;;;;;29.63;14.03;;;-4.30;99.90;;;;;;5050500;28;20244;-49
2022/12/18 06:33:57;;;;;;;26.00;13.07;;;-4.30;99.90;;;;;;5052214;28;20708;-49
2022/12/18 06:36:22;;;;;;;26.30;13.17;;;-4.20;99.90;;;;;;5050640;28;20171;-47
2022/12/18 06:38:48;;;;;;;26.83;12.70;;;-4.20;99.90;;;;;;5051744;28;20175;-49
2022/12/18 06:41:16;;;;;;;30.33;12.60;;;-4.40;99.90;;;;;;5051784;28;20254;-49
2022/12/18 06:43:42;;;;;;;25.80;12.13;;;-4.30;99.90;;;;;;5051709;28;20629;-47
2022/12/18 06:46:08;;;;;;;20.73;11.20;;;-4.40;99.90;;;;;;5051693;28;20250;-46
2022/12/18 06:48:34;;;;;;;28.13;13.13;;;-4.40;99.90;;;;;;5051736;28;20308;-47
2022/12/18 06:51:00;;;;;;;31.03;13.37;;;-4.40;99.90;;;;;;5051607;28;20293;-48
2022/12/18 06:53:26;;;;;;;23.80;12.37;;;-4.40;99.90;;;;;;5052067;28;20178;-49
2022/12/18 06:55:52;;;;;;;23.30;11.60;;;-4.40;99.90;;;;;;5051634;28;20259;-48
2022/12/18 06:58:18;;;;;;;23.73;11.50;;;-4.40;99.90;;;;;;5051888;28;20634;-48
2022/12/18 07:00:43;;;;;;;19.00;9.97;;;-4.40;99.90;;;;;;5051478;28;20168;-48
2022/12/18 07:03:10;;;;;;;22.50;12.87;;;-4.30;99.90;;;;;;5050233;28;20634;-47
2022/12/18 07:05:40;;;;;;;25.67;12.40;;;-4.40;99.90;;;;;;5051782;28;20265;-49
2022/12/18 07:08:06;;;;;;;28.23;13.10;;;-4.40;99.90;;;;;;5051735;28;20206;-48
2022/12/18 07:10:31;;;;;;;23.50;12.57;;;-4.40;99.90;;;;;;5051424;28;20662;-48
2022/12/18 07:12:57;;;;;;;25.13;12.73;;;;;;;;;;5051662;28;20177;-47
2022/12/18 07:15:23;;;;;;;29.23;13.17;;;-4.40;99.90;;;;;;5051335;28;20171;-47
2022/12/18 07:17:48;;;;;;;20.77;11.07;;;-4.30;99.90;;;;;;5051377;28;20257;-48
2022/12/18 07:20:14;;;;;;;24.97;12.03;;;-4.30;99.90;;;;;;5051363;28;20230;-48
2022/12/18 07:22:39;;;;;;;25.77;13.97;;;-4.30;99.90;;;;;;5051455;28;20173;-48
2022/12/18 07:25:06;;;;;;;24.23;11.67;;;-4.30;99.90;;;;;;5051389;28;20178;-48
2022/12/18 07:27:31;;;;;;;23.70;11.60;;;-4.20;99.90;;;;;;5051231;28;20187;-45
2022/12/18 07:29:57;;;;;;;27.33;14.23;;;-4.20;99.90;;;;;;5053646;28;20255;-44
2022/12/18 07:32:22;;;;;;;29.37;15.27;;;-4.20;99.90;;;;;;5054854;28;20256;-44
2022/12/18 07:34:48;;;;;;;21.77;11.50;;;-4.10;99.90;;;;;;5055174;28;20524;-47
2022/12/18 07:37:13;;;;;;;21.97;12.43;;;-4.20;99.90;;;;;;5055215;28;20626;-44
2022/12/18 07:39:39;;;;;;;26.87;12.87;;;-4.10;99.90;;;;;;5055249;28;20253;-44
2022/12/18 07:44:51;;;;;;;22.90;13.13;;;-4.20;99.90;;;;;;5055265;28;20179;-47
2022/12/18 07:47:17;;;;;;;26.03;12.07;;;-4.10;99.90;;;;;;5054628;28;20175;-48
2022/12/18 07:49:42;;;;;;;21.53;12.20;;;-4.10;99.90;;;;;;5054944;28;20247;-48
2022/12/18 07:52:09;;;;;;;24.40;11.67;;;-4.10;99.90;;;;;;5054851;28;20202;-48
2022/12/18 07:54:34;;;;;;;26.03;12.57;;;-4.10;99.90;;;;;;5054757;28;20174;-48
2022/12/18 07:57:00;;;;;;;29.43;11.97;;;-4.10;99.90;;;;;;5054761;28;20174;-49
2022/12/18 07:59:26;;;;;;;28.97;11.57;;;-4.10;99.90;;;;;;5053857;28;20199;-48
2022/12/18 08:01:52;;;;;;;23.90;11.60;;;-4.10;99.90;;;;;;5054440;28;20280;-48
2022/12/18 08:04:17;;;;;;;23.03;12.33;;;-4.10;99.90;;;;;;5054624;28;20178;-49
2022/12/18 08:06:43;;;;;;;22.20;10.70;;;-4.10;99.90;;;;;;5054597;28;20293;-49
2022/12/18 08:09:10;;;;;;;20.10;10.87;;;-4.10;99.90;;;;;;5054567;28;20167;-48
2022/12/18 08:11:35;;;;;;;29.83;12.80;;;-4.10;99.90;;;;;;5054374;28;20256;-49
2022/12/18 08:14:01;;;;;;;24.23;12.10;;;-4.00;99.90;;;;;;5054369;28;20195;-46
2022/12/18 08:16:27;;;;;;;24.27;11.73;;;-4.00;99.90;;;;;;5054783;28;20197;-48
2022/12/18 08:18:53;;;;;;;27.33;12.37;;;-3.90;99.90;;;;;;5054609;28;20220;-49
2022/12/18 08:21:22;;;;;;;25.00;12.57;;;-3.90;99.90;;;;;;5052930;28;20178;-49
2022/12/18 08:23:49;;;;;;;25.87;12.37;;;-3.80;99.90;;;;;;5054236;28;20243;-47
2022/12/18 08:26:15;;;;;;;21.20;10.60;;;-3.70;99.90;;;;;;5054233;28;20168;-48
2022/12/18 08:28:41;;;;;;;22.43;11.73;;;-3.50;99.90;;;;;;5054193;28;20171;-49
2022/12/18 08:31:08;;;;;;;25.17;11.53;;;-3.60;99.90;;;;;;5054121;28;20254;-47
2022/12/18 08:33:33;;;;;;;21.47;11.60;;;-3.60;99.90;;;;;;5054207;28;20192;-48
2022/12/18 08:36:00;;;;;;;22.77;11.53;;;-3.50;99.90;;;;;;5054066;28;20242;-46
2022/12/18 08:38:25;;;;;;;28.50;12.03;;;-3.50;99.90;;;;;;5054685;28;20504;-49
2022/12/18 08:41:08;;;;;;;18.80;10.47;;;-3.40;99.90;;;;;;5053730;28;20179;-49
2022/12/18 08:46:19;;;;;;;19.30;10.07;;;-3.30;99.90;;;;;;5054148;28;20209;-48
2022/12/18 08:48:46;;;;;;;22.10;11.07;;;-3.30;99.90;;;;;;5053861;28;20627;-48
2022/12/18 08:51:11;;;;;;;24.07;11.37;;;-3.20;99.90;;;;;;5053539;28;20640;-44
2022/12/18 08:53:37;;;;;;;17.40;9.83;;;-3.10;99.90;;;;;;5053717;28;20292;-44
2022/12/18 08:56:03;;;;;;;23.50;11.30;;;-3.10;99.90;;;;;;5053567;28;20594;-44
2022/12/18 08:58:29;;;;;;;19.97;11.17;;;-3.00;99.90;;;;;;5053891;28;20283;-44
2022/12/18 09:01:02;;;;;;;21.80;10.13;;;-3.00;99.90;;;;;;5053778;28;20213;-43
2022/12/18 09:03:28;;;;;;;23.10;11.20;;;-2.90;99.90;;;;;;5053330;28;20181;-43
2022/12/18 09:05:54;;;;;;;23.83;11.83;;;-2.90;99.90;;;;;;5053437;28;20174;-44
2022/12/18 09:08:19;;;;;;;28.50;11.77;;;-2.90;99.90;;;;;;5053477;28;20170;-46
2022/12/18 09:10:46;;;;;;;24.97;12.47;;;-2.90;99.90;;;;;;5053066;28;20678;-44
2022/12/18 09:13:14;;;;;;;22.87;11.83;;;-2.80;99.90;;;;;;5053388;28;20260;-44
2022/12/18 09:15:47;;;;;;;23.63;11.03;;;-2.80;99.90;;;;;;5052670;28;20307;-44
2022/12/18 09:18:14;;;;;;;17.13;9.23;;;-2.80;99.90;;;;;;5052608;28;20324;-44
2022/12/18 09:20:39;;;;;;;28.17;13.80;;;-2.80;99.90;;;;;;5052528;28;20217;-44
2022/12/18 09:23:06;;;;;;;24.97;12.43;;;-2.60;99.90;;;;;;5052005;28;20202;-44
2022/12/18 09:25:33;;;;;;;21.87;11.43;;;-2.60;99.90;;;;;;5052432;28;20177;-44
2022/12/18 09:28:15;;;;;;;26.08;11.80;;;-2.40;99.90;;;;;;5051580;28;20236;-43
2022/12/18 09:30:42;;;;;;;21.20;11.23;;;-2.40;99.90;;;;;;5052918;28;20538;-45
2022/12/18 09:33:08;;;;;;;22.20;11.70;;;-2.40;99.90;;;;;;5051998;28;20171;-44
2022/12/18 09:35:38;;;;;;;19.93;10.73;;;-2.30;99.90;;;;;;5052400;28;20669;-44
2022/12/18 09:38:04;;;;;;;21.13;11.67;;;-2.30;99.90;;;;;;5052813;28;20658;-44
2022/12/18 09:40:36;;;;;;;23.23;12.93;;;-2.20;99.90;;;;;;5051464;28;20178;-45
2022/12/18 09:43:04;;;;;;;23.80;11.77;;;-2.20;99.90;;;;;;5052200;28;20206;-44
2022/12/18 09:45:41;;;;;;;19.57;10.30;;;-2.20;99.90;;;;;;5052670;28;20573;-45
2022/12/18 09:48:15;;;;;;;19.70;10.18;;;-2.20;99.90;;;;;;5052635;28;20170;-46
2022/12/18 09:50:41;;;;;;;21.23;10.80;;;-2.10;99.90;;;;;;5052269;28;20558;-44
2022/12/18 09:53:22;;;;;;;23.55;11.88;;;-2.20;99.90;;;;;;5051723;28;20175;-44
2022/12/18 09:55:51;;;;;;;20.08;11.80;;;-2.10;99.90;;;;;;5052542;28;20643;-44
2022/12/18 09:58:32;;;;;;;19.33;10.83;;;-2.00;99.90;;;;;;5052481;28;20177;-44
2022/12/18 10:00:58;;;;;;;19.97;10.37;;;-2.00;99.90;;;;;;5052240;28;20251;-44
2022/12/18 10:03:24;;;;;;;19.30;10.90;;;-1.90;99.90;;;;;;5052828;28;20209;-44
2022/12/18 10:06:01;;;;;;;14.50;9.18;;;-1.80;99.90;;;;;;5052347;28;20216;-44
2022/12/18 10:09:10;;;;;;;20.15;10.63;;;-1.80;99.90;;;;;;5052648;28;20212;-44
2022/12/18 10:11:57;;;;;;;23.65;12.05;;;-1.80;99.90;;;;;;5030174;28;20214;-45
2022/12/18 10:14:33;;;;;;;19.02;10.98;;;-1.70;99.90;;;;;;5030223;28;20179;-45
2022/12/18 10:17:17;;;;;;;17.33;10.55;;;-1.60;99.90;;;;;;5045794;28;20174;-44
2022/12/18 10:19:56;;;;;;;21.25;11.15;;;-1.60;99.90;;;;;;5050835;28;20241;-44
2022/12/18 10:22:30;;;;;;;18.90;10.70;;;-1.50;99.90;;;;;;5051859;28;20658;-43
2022/12/18 10:25:20;;;;;;;24.77;11.88;;;-1.40;99.90;;;;;;5052117;28;20165;-44
2022/12/18 10:27:46;;;;;;;25.48;11.07;;;-1.40;99.90;;;;;;5051598;28;20174;-43
2022/12/18 10:30:14;;;;;;;23.90;12.05;;;-1.40;99.90;;;;;;5051450;28;20186;-43
2022/12/18 10:32:40;;;;;;;21.20;11.82;;;-1.40;99.90;;;;;;5051599;28;20695;-43
2022/12/18 10:35:16;;;;;;;19.98;10.23;;;-1.30;99.90;;;;;;5051649;28;20242;-43
2022/12/18 10:38:00;;;;;;;24.27;11.52;;;-1.20;99.90;;;;;;5051556;28;20155;-43
2022/12/18 10:40:26;;;;;;;26.52;12.02;;;-1.10;99.90;;;;;;5051367;28;20534;-43
2022/12/18 10:43:25;;;;;;;23.25;10.95;;;-1.10;99.90;;;;;;5051540;28;20167;-45
2022/12/18 10:46:09;;;;;;;21.25;12.68;;;-1.10;99.90;;;;;;5039672;28;20178;-43
2022/12/18 10:48:39;;;;;;;26.48;10.88;;;-1.10;99.90;;;;;;5051482;28;20173;-44
2022/12/18 10:51:06;;;;;;;26.30;13.43;;;-1.10;99.90;;;;;;5051156;28;20670;-45
2022/12/18 10:53:34;;;;;;;22.00;10.77;;;-1.00;99.90;;;;;;5051628;28;20174;-44
2022/12/18 10:56:01;;;;;;;17.98;10.23;;;-1.00;99.90;;;;;;5051015;28;20174;-44
2022/12/18 10:58:29;;;;;;;19.73;11.30;;;-1.00;99.90;;;;;;5050913;28;20305;-43
2022/12/18 11:01:15;;;;;;;24.10;11.30;;;-0.90;99.90;;;;;;5051470;28;20214;-43
2022/12/18 11:03:44;;;;;;;19.35;10.75;;;-0.80;99.90;;;;;;5052693;28;20198;-44
2022/12/18 11:06:15;;;;;;;27.73;12.93;;;-0.80;99.90;;;;;;5055027;28;20158;-45
2022/12/18 11:08:43;;;;;;;22.20;11.18;;;-0.80;99.90;;;;;;5055401;28;20197;-44
2022/12/18 11:11:20;;;;;;;24.13;11.85;;;-0.80;99.90;;;;;;5053885;28;20571;-45
2022/12/18 11:13:55;;;;;;;25.35;12.40;;;-0.80;99.90;;;;;;5055433;28;20178;-44
2022/12/18 11:16:20;;;;;;;19.58;9.65;;;-0.90;99.90;;;;;;5055035;28;20162;-45
2022/12/18 11:18:46;;;;;;;25.42;11.90;;;-0.90;99.90;;;;;;5054672;28;20162;-45
2022/12/18 11:21:13;;;;;;;19.38;11.13;;;-0.90;99.90;;;;;;5054785;28;20155;-43
2022/12/18 11:23:49;;;;;;;18.58;9.77;;;-0.80;99.90;;;;;;5055008;28;20174;-45
2022/12/18 11:26:14;;;;;;;21.02;10.82;;;-0.80;99.90;;;;;;5054782;28;20252;-46
2022/12/18 11:28:52;;;;;;;21.60;10.45;;;1.40;99.90;;;;;;5055311;28;20235;-44
2022/12/18 11:31:27;;;;;;;18.40;10.02;;;-0.80;99.90;;;;;;5054749;28;20198;-44
2022/12/18 11:34:17;;;;;;;24.60;12.68;;;-0.80;99.90;;;;;;5055228;28;20638;-44
2022/12/18 11:36:45;;;;;;;25.42;11.93;;;-0.70;99.90;;;;;;5054656;28;20190;-43
2022/12/18 11:39:20;;;;;;;22.67;11.88;;;-0.60;99.90;;;;;;5054601;28;20650;-45
2022/12/18 11:42:09;;;;;;;23.63;11.45;;;-0.60;99.90;;;;;;5054774;28;20201;-44
2022/12/18 11:44:49;;;;;;;22.88;10.63;;;-0.60;99.90;;;;;;5054624;28;20220;-43
2022/12/18 11:47:39;;;;;;;17.50;10.60;;;-0.50;99.90;;;;;;5054810;28;20696;-44
2022/12/18 11:50:18;;;;;;;21.65;10.75;;;-0.50;99.90;;;;;;5054764;28;20617;-44
2022/12/18 11:52:44;;;;;;;16.13;8.30;;;-0.60;99.90;;;;;;5054679;28;20206;-44
2022/12/18 11:55:39;;;;;;;18.50;10.00;;;-0.60;99.90;;;;;;5054573;28;20558;-44
2022/12/18 11:58:33;;;;;;;23.55;13.60;;;-0.60;99.90;;;;;;5054467;28;20212;-44
2022/12/18 12:01:10;;;;;;;22.53;11.73;;;-0.50;99.90;;;;;;5054462;28;20244;-45
2022/12/18 12:03:54;;;;;;;24.52;12.48;;;-0.40;99.90;;;;;;5054030;28;20708;-51
2022/12/18 12:06:44;;;;;;;26.10;13.27;;;-0.40;99.90;;;;;;5054155;28;20242;-51
2022/12/18 12:09:18;;;;;;;20.10;12.25;;;-0.40;99.90;;;;;;5054610;28;20527;-49
2022/12/18 12:11:56;;;;;;;23.60;13.40;;;-0.40;99.90;;;;;;5054160;28;20202;-51
2022/12/18 12:14:42;;;;;;;26.45;13.20;;;-0.50;99.90;;;;;;5053999;28;20167;-51
2022/12/18 12:17:38;;;;;;;16.15;10.45;;;-0.50;99.90;;;;;;5054351;28;20166;-51
2022/12/18 12:20:20;;;;;;;23.05;12.82;;;-0.50;99.90;;;;;;5053926;28;20174;-47
2022/12/18 12:22:58;;;;;;;28.35;15.25;;;-0.60;99.90;;;;;;5054232;28;20586;-52
2022/12/18 12:26:05;;;;;;;28.88;14.02;;;-0.50;99.90;;;;;;5053161;28;20197;-50
2022/12/18 12:28:49;;;;;;;28.65;14.98;;;-0.40;99.90;;;;;;5035984;28;20190;-52
2022/12/18 12:31:40;;;;;;;33.65;14.88;;;-0.40;99.90;;;;;;5046282;28;20599;-48
2022/12/18 12:34:20;;;;;;;59.33;26.55;;;-0.40;99.90;;;;;;5063266;28;20255;-52
2022/12/18 12:37:05;;;;;;;41.72;18.13;;;-0.40;99.90;;;;;;5055946;28;20185;-46
2022/12/18 12:39:35;;;;;;;34.35;16.38;;;-0.50;99.90;;;;;;5051635;28;20182;-52
2022/12/18 12:44:56;;;;;;;27.85;13.05;;;-0.40;99.90;;;;;;5041852;28;20190;-46
2022/12/18 12:47:36;;;;;;;23.05;13.05;;;-0.40;99.90;;;;;;5040877;28;20166;-47
2022/12/18 12:50:12;;;;;;;25.70;13.60;;;-0.30;99.90;;;;;;5048108;28;20245;-48
2022/12/18 12:52:45;;;;;;;29.20;12.98;;;-0.40;99.90;;;;;;5042134;28;20218;-48
2022/12/18 12:55:38;;;;;;;18.55;8.93;;;-0.30;99.90;;;;;;5033369;28;20635;-45
2022/12/18 12:58:10;;;;;;;25.35;13.07;;;-0.30;99.90;;;;;;5045666;28;20205;-51
2022/12/18 13:00:45;;;;;;;25.67;13.70;;;-0.30;99.90;;;;;;5033719;28;20533;-44